Video statistics

Date Title
2014-01-03 The Golden Gate Bridge Didn't Collapse!! 04:00 593,274 21,249 329 2,181 5,109
2014-01-07 Warm Things for Cold Times 02:35 491,053 18,054 67 1,586 3,650
2014-01-10 Global Warming and the Polar Vortex 04:00 507,071 18,415 257 2,281 4,715
2014-01-14 Giving Away Over $700,000 02:56 375,269 15,315 100 1,061 4,129
2014-01-17 54 JOKES! In Four Minutes! 04:00 1,789,558 39,536 697 2,933 5,830
2014-01-21 Are Poor Countries Doomed? 03:51 565,660 22,429 183 1,854 5,540
2014-01-24 The Naughty Professor: Hank and John at the Beach - REUNION! 03:56 865,400 31,752 60 2,197 6,221
2014-01-29 Question Tuesday! TFIOS Movie Trailer, Penguin Knees, and Backflips 03:56 890,016 31,115 108 2,657 5,957
2014-01-31 In Depth Viewing of the TFiOS Trailer 04:01 909,730 31,760 349 3,034 4,001
2014-02-04 Should We Raise the Minimum Wage? 03:47 1,339,184 29,026 1,379 6,022 5,029
2014-02-07 Kill All The Humans 03:28 626,443 20,411 351 2,348 4,337
2014-02-11 A Middle Aged Man 03:38 784,798 26,436 109 1,630 5,161
2014-02-14 Happy Third Chocolate Day! 03:48 436,837 16,392 107 1,246 4,803
2014-02-18 18 Great Books You Probably Haven't Read 03:25 3,113,461 86,566 608 15,995 5,502
2014-02-21 Ranting about Books 03:56 1,030,494 46,584 152 3,175 4,569
2014-02-25 John and Chris Meet in the Middle 03:57 391,891 14,723 75 761 5,465
2014-03-01 The Cost of Fun 03:15 568,657 18,356 179 1,803 4,206
2014-03-05 Understanding Ukraine: The Problems Today and Some Historical Context 06:59 5,173,520 89,450 8,404 16,089 8,542
2014-03-07 Thoughts from a Cruise 03:31 554,746 16,301 139 1,289 3,707
2014-03-12 Question Tuesday: TFIOS Movie, Existential Crises, and Symbolism 03:41 632,786 23,283 87 3,927 5,378
2014-03-15 Sexual Abuse, Consent, and Culture 03:58 899,643 32,487 327 3,141 4,830
2014-03-18 Is the American Dream Real? 03:33 828,179 23,589 417 2,296 4,799
2014-03-21 The Great Goose Migration 03:59 339,033 17,507 91 1,768 3,087
2014-03-25 I Gotta Go: Signing Off and Thinking about Inspiration 03:54 492,488 22,217 54 1,664 5,703
2014-03-28 New Album, New Channels, New Fabric, New Internet Thing! 03:58 321,713 9,817 96 764 5,116
2014-04-01 VELOCIRAPTORS 03:25 695,423 25,440 112 1,776 4,567
2014-04-05 Mass Incarceration in the US 03:41 2,429,945 73,966 980 5,871 3,897
2014-04-08 I Don't Even Know 02:53 693,668 23,009 105 2,357 4,090
2014-04-11 What Boys Look For in Girls 03:55 1,754,576 89,385 584 5,079 4,242
2014-04-15 Walking the Red Carpet: Thoughts from Los Angeles 03:07 834,301 32,577 72 1,884 4,284
2014-04-18 What is The Oldest Song? 04:00 699,652 22,751 393 1,642 3,624
2014-04-22 Understanding the Central African Republic 05:21 604,624 18,510 164 1,389 7,329
2014-04-26 I Love Science (Clean Version) (Uncensored link in the Description) 03:44 633,543 13,269 397 1,294 3,608
2014-04-29 Influence, Airports, and the Nerdfighter Book Club 03:39 418,614 18,252 55 1,221 5,275
2014-05-02 Hank vs. Hank: The Net Neutrality Debate in 3 Minutes 03:43 935,106 33,760 1,003 3,114 4,489
2014-05-06 TFIOS Movie Madness, Incongruent, and Headless Hotel People 03:21 406,468 18,927 56 1,175 4,469
2014-05-09 Oh JK Rowling - Kinetic Typography 03:59 703,545 22,522 688 1,293 4,298
2014-05-13 Perfect Puff and Endless Interviews: Touring and Hollywood Press Junkets 04:00 307,393 17,850 44 1,383 5,376
2014-05-16 The Myth of Greatness 03:57 512,350 20,705 121 1,014 4,612
2014-05-20 Deserving 03:39 794,051 33,316 373 1,861 5,125
2014-05-23 My Freakish Talent 03:51 616,200 32,589 183 2,126 4,721
2014-05-27 ALL THE SHIRTS (and some paths to community) 04:00 406,171 15,462 76 1,675 5,820
2014-05-30 Nerdfighteria Census 2014 Results! 03:59 401,810 13,178 54 1,442 5,429
2014-06-03 The Fault in Our Stars Movie Premiere 03:21 956,522 41,662 106 3,659 4,933
2014-06-06 Thoughts from the TFiOS Premiere! 03:59 623,739 26,874 104 2,155 4,730
2014-06-10 Our Old Friend Complexity: Behind the Beautiful Forevers 03:45 407,994 12,111 67 1,439 5,456
2014-06-13 How to Make Cinnamon Toast (two ways) 03:33 880,159 29,369 370 7,292 3,984
2014-06-17 Old. 02:46 625,802 27,858 132 2,949 3,435
2014-06-20 Pre-History of Online Video 03:55 402,211 12,834 129 2,081 4,274
2014-06-24 In Pursuit of Quiet 02:52 500,239 23,308 124 2,162 2,721
2014-06-27 My Day Before VidCon 03:45 451,943 18,614 79 1,043 4,911
2014-07-01 Why I Love Makeup 02:43 915,022 34,082 272 2,517 3,768
2014-07-05 13 Things to Know about Concerts 03:59 620,184 28,570 107 1,448 5,072
2014-07-08 The Future of Nerdfighteria 03:35 440,682 19,598 75 3,145 5,221
2014-07-11 Touring with a Rock Band in 1,8X&,00B Simple Steps 03:41 215,995 8,352 45 552 3,722
2014-07-15 Exciting Announcements and Mosquito-Borne Illnesses 03:01 403,706 15,069 57 2,792 4,120
2014-07-18 EVERY VLOGBROTHERS PUNISHMENT! 04:00 618,186 18,183 51 3,294 5,752
2014-07-22 Ambiguous Victories and Real Progress: Behind the Beautiful Forevers 03:44 322,687 9,460 47 596 5,294
2014-07-25 Towering Mountains of Ignorance 03:52 528,641 28,333 213 2,755 5,089
2014-07-29 Listen: Thoughts from Addis Ababa, Ethiopia 03:21 481,245 24,154 119 1,365 4,582
2014-08-01 PUNISHMENT OF PAIN AND SCIENCE! 03:56 578,749 18,644 70 1,638 5,287
2014-08-03 Happy Esther Day! 01:33 381,626 18,437 59 867 1,684
2014-08-08 Who Owns a Monkey's Selfie? And a Song About Meningitis! 03:59 408,371 13,961 102 1,326 4,203
2014-08-12 EBOLA! (...meningitis) 03:57 559,154 23,090 79 1,429 4,948
2014-08-15 The Bizarre State of Copyright 03:57 531,105 15,095 121 896 5,559
2014-08-19 Baby Names: Thoughts from Rural Ethiopia 04:00 424,205 18,948 60 847 5,373
2014-08-22 Kidneys, LlamaJohn, Frankenstein, Back to School, and The Nerdfighter Online Video Workshop! 03:59 351,581 12,974 44 824 5,004
2014-08-26 Food Is Weird: Understanding Agriculture in the Developing World 07:18 521,047 18,423 97 1,658 9,270
2014-08-29 What's the Difference Between A and Z 03:56 481,552 19,730 70 1,345 7,624
2014-09-02 MORTIFICATION 03:37 456,759 21,241 52 1,273 4,952
2014-09-05 REUNION TUESDAY! FRIDAY! WHATEVER! 03:58 691,159 23,819 53 963 6,345
2014-09-09 Bill Gates and John Green Discuss Global Health 02:27 304,071 11,520 49 585 2,638
2014-09-09 Going to College (in Ethiopia) 04:01 337,022 13,188 73 924 5,376
2014-09-12 Jetpacks and Certain Death: JOIN THE HANGOUT 01:36 32,959 1,647 13 103 1,909
2014-09-13 Hanging with High School Hank 03:57 744,200 21,067 72 1,720 4,651
2014-09-16 It's Question Tuesday! Cheesy Jokes, Paper Towns Movie, and Dinosaur Butt Brains 03:53 672,649 23,713 74 1,569 5,974
2014-09-19 The Oculus Rift is Freakin Me Out 03:59 367,188 10,914 100 914 4,953
2014-09-23 Looking Away 03:17 344,461 16,701 44 683 4,276
2014-09-27 Gettin' Real with Hank 03:56 501,867 22,367 90 1,440 4,543
2014-09-30 Keeping it EVEN REALER 04:00 528,967 20,716 47 2,644 5,240
2014-10-03 Hong Kong Protests Explained 06:38 854,073 25,199 358 2,598 9,052
2014-10-07 I Kind of Hate Batman 03:28 1,045,398 35,531 5,074 4,936 4,723
2014-10-10 I Kinda AM Batman 03:55 685,210 25,092 636 1,583 4,770
2014-10-14 A Minor Crisis 03:56 592,648 18,295 77 1,680 5,460
2014-10-17 MY FACE ON A BUS 04:00 412,151 21,074 123 1,846 4,621
2014-10-21 Ebola: What IS Terrifying 03:34 594,262 21,205 124 1,255 4,485
2014-10-24 #Octothorpe - A Symbolistic Journey 03:42 328,767 13,770 50 1,308 4,837
2014-10-28 The Paper Towns Movie IS HERE! 03:43 940,603 33,658 127 2,152 5,314
2014-10-31 Ten Terrible Reason to not Vote (and two good ones) 03:31 645,192 24,256 716 3,526 4,461
2014-11-04 Mustaches and Movies: Day One of Paper Towns 03:07 465,436 21,566 62 1,346 4,045
2014-11-07 New Crash Course and Pizzamas! 04:00 303,905 15,721 31 2,124 4,983
2014-11-11 The Woman Without a Face - Pizzamas Day 1 03:47 333,839 12,733 27 765 4,691
2014-11-12 Lacey and Angela Question Tuesday: Pizzamas Day 2 04:00 480,744 17,666 90 816 6,262
2014-11-13 The History of Pizza John! 03:53 692,428 24,483 91 1,131 4,862
2014-11-13 The History of Pizza and the History of John: Pizzamas Day 4 03:12 350,420 12,723 27 990 4,079
2014-11-15 A Surprise Relationship Between John and Hank! 03:50 523,969 28,409 79 2,476 4,686
2014-11-17 Combines and Movie Magic: Pizzamas Day 6 02:53 358,553 11,654 31 472 4,158
2014-11-18 How to Never Feel Embarrassed Again 04:00 745,990 27,411 119 6,172 4,716
2014-11-20 The Future of the Project for Awesome: Pizzamas Day 8 04:00 273,047 10,816 59 938 5,262
2014-11-21 Announcing VidCon 2015! 03:59 289,271 13,528 65 993 4,947
2014-11-21 The Sleepiest Sleepyhead in Sleeptown 03:14 343,180 12,309 50 423 4,033
2014-11-25 Tyler, Ingrid, Troye, Hannah, Mandy, Jenn, and Rosianna Visit Paper Towns 03:53 561,490 24,985 123 1,170 6,062
2014-11-28 Global Health and Human Hair: What the Vlogbrothers are Thankful For 03:54 341,275 12,088 42 1,213 5,488
2014-12-02 What You Eat Of Those You Love 03:00 354,940 13,976 57 699 3,757
2014-12-06 A Brief History of Homestar Runner 04:00 579,585 13,520 441 1,238 6,578
2014-12-08 I'm Home! Time to Get Ready for the 2014 Project for Awesome 02:47 292,705 9,429 38 480 4,003
2014-12-10 Question Tuesday with Cara Delevingne of Paper Towns 03:47 3,079,520 85,030 433 3,107 5,467
2014-12-12 NONSENSE: P4A 2014 - Partners in Health 03:49 143,156 6,452 32 320 5,243
2014-12-16 Jelly Face, Sharpie Face, Peanut Butter Face, and Mummy Dancers: The 2014 Project for Awesome 02:36 222,695 7,867 23 532 3,468
2014-12-19 BUTFARTMAN Is Coming To Town! 03:59 180,649 8,752 48 470 4,545
2014-12-23 Agloe, New York 03:08 296,231 16,009 37 721 4,248
2014-12-27 The Best and Worst of 2014 03:10 401,872 16,051 456 1,196 4,126
2014-12-30 Racism in the United States: By the Numbers 03:56 1,500,153 45,226 2,394 6,540 5,314